createdAt,value
2022-08-05T00:01:36.230Z,74.76
2022-08-05T00:04:17.562Z,75.18
2022-08-05T00:06:47.080Z,75.82
2022-08-05T00:09:19.746Z,74.92
2022-08-05T00:11:55.842Z,75.56
2022-08-05T00:14:31.524Z,76.30
2022-08-05T00:17:01.820Z,76.53
2022-08-05T00:19:33.305Z,75.84
2022-08-05T00:22:11.485Z,77.35
2022-08-05T00:24:42.645Z,77.80
2022-08-05T00:27:16.841Z,77.41
2022-08-05T00:29:48.041Z,79.47
2022-08-05T00:32:17.647Z,78.29
2022-08-05T00:35:03.400Z,79.51
2022-08-05T00:37:51.285Z,78.48
2022-08-05T00:40:26.904Z,79.78
2022-08-05T00:42:58.342Z,79.84
2022-08-05T00:45:43.109Z,79.00
2022-08-05T00:48:13.742Z,78.42
2022-08-05T00:50:44.179Z,79.29
2022-08-05T00:53:45.113Z,79.46
2022-08-05T00:56:07.876Z,79.80
2022-08-05T00:58:37.052Z,80.33
2022-08-05T01:01:08.875Z,79.97
2022-08-05T01:03:38.119Z,79.70
2022-08-05T01:06:14.010Z,80.09
2022-08-05T01:08:44.949Z,81.20
2022-08-05T01:11:22.399Z,81.11
2022-08-05T01:14:08.445Z,80.87
2022-08-05T01:16:49.278Z,80.22
2022-08-05T01:19:56.373Z,81.30
2022-08-05T01:22:43.022Z,80.56
2022-08-05T01:25:59.837Z,81.06
2022-08-05T01:28:39.473Z,82.02
2022-08-05T01:31:12.262Z,80.74
2022-08-05T01:33:48.943Z,81.18
2022-08-05T01:36:28.209Z,81.46
2022-08-05T01:39:01.001Z,81.33
2022-08-05T01:41:34.319Z,80.86
2022-08-05T01:44:10.011Z,80.61
2022-08-05T01:46:46.432Z,80.39
2022-08-05T01:49:24.417Z,79.84
2022-08-05T01:51:58.741Z,79.89
2022-08-05T01:54:31.996Z,79.83
2022-08-05T01:58:11.073Z,79.13
2022-08-05T01:59:54.319Z,78.62
2022-08-05T02:02:28.113Z,79.37
2022-08-05T02:05:00.128Z,78.74
2022-08-05T02:07:30.341Z,78.91
2022-08-05T02:10:00.506Z,78.36
2022-08-05T02:12:36.107Z,78.97
2022-08-05T02:15:12.964Z,78.76
2022-08-05T02:18:28.745Z,79.03
2022-08-05T02:20:51.663Z,79.19
2022-08-05T02:23:24.089Z,79.13
2022-08-05T02:25:55.421Z,79.12
2022-08-05T02:28:31.984Z,79.63
2022-08-05T02:31:14.278Z,79.11
2022-08-05T02:33:57.195Z,79.21
2022-08-05T02:36:27.950Z,79.15
2022-08-05T02:39:03.298Z,80.14
2022-08-05T02:41:36.434Z,80.06
2022-08-05T02:44:25.802Z,80.52
2022-08-05T02:47:00.731Z,80.54
2022-08-05T02:49:37.095Z,80.73
2022-08-05T02:52:09.667Z,80.79
2022-08-05T02:54:42.753Z,80.71
2022-08-05T02:58:09.340Z,80.85
2022-08-05T03:00:13.448Z,80.82
2022-08-05T03:02:46.635Z,80.83
2022-08-05T03:05:16.860Z,81.19
2022-08-05T03:08:06.573Z,81.36
2022-08-05T03:10:37.023Z,81.54
2022-08-05T03:13:16.640Z,82.50
2022-08-05T03:15:46.462Z,82.42
2022-08-05T03:18:17.270Z,82.79
2022-08-05T03:20:48.770Z,85.70
2022-08-05T03:23:17.808Z,83.34
2022-08-05T03:26:04.993Z,82.62
2022-08-05T03:28:34.951Z,82.37
2022-08-05T03:31:05.278Z,83.04
2022-08-05T03:33:49.264Z,82.60
2022-08-05T03:36:30.423Z,83.86
2022-08-05T03:38:59.678Z,84.57
2022-08-05T03:41:32.950Z,84.65
2022-08-05T03:44:11.612Z,84.38
2022-08-05T03:46:40.609Z,84.06
2022-08-05T03:49:10.462Z,84.80
2022-08-05T03:52:49.072Z,84.43
2022-08-05T03:55:50.403Z,84.43
2022-08-05T03:57:41.785Z,84.09
2022-08-05T04:00:15.820Z,85.81
2022-08-05T04:02:57.607Z,87.57
2022-08-05T04:05:33.767Z,86.90
2022-08-05T04:08:05.841Z,86.24
2022-08-05T04:10:45.548Z,85.83
2022-08-05T04:13:14.480Z,85.71
2022-08-05T04:16:02.870Z,85.38
2022-08-05T04:18:34.515Z,85.81
2022-08-05T04:21:07.202Z,85.75
2022-08-05T04:24:06.307Z,86.42
2022-08-05T04:26:32.486Z,87.19
2022-08-05T04:29:01.143Z,86.74
2022-08-05T04:31:38.391Z,88.25
2022-08-05T04:34:31.830Z,89.98
2022-08-05T04:36:57.615Z,90.36
2022-08-05T04:39:27.450Z,91.09
2022-08-05T04:41:56.300Z,90.55
2022-08-05T04:44:30.110Z,91.72
2022-08-05T04:46:59.648Z,90.02
2022-08-05T04:49:38.632Z,88.97
2022-08-05T04:52:18.613Z,91.55
2022-08-05T04:54:47.395Z,89.43
2022-08-05T04:57:18.029Z,89.25
2022-08-05T04:59:47.934Z,89.39
2022-08-05T05:02:41.945Z,91.90
2022-08-05T05:05:16.929Z,89.83
2022-08-05T05:08:01.636Z,90.46
2022-08-05T05:10:33.617Z,90.46
2022-08-05T05:13:04.026Z,91.08
2022-08-05T05:15:56.974Z,90.74
2022-08-05T05:18:28.409Z,89.89
2022-08-05T05:21:03.953Z,89.18
2022-08-05T05:23:39.338Z,90.32
2022-08-05T05:26:28.089Z,89.90
2022-08-05T05:28:57.424Z,89.90
2022-08-05T05:31:25.820Z,89.06
2022-08-05T05:34:01.875Z,89.76
2022-08-05T05:36:30.871Z,89.61
2022-08-05T05:39:03.828Z,89.77
2022-08-05T05:41:40.752Z,89.10
2022-08-05T05:44:27.015Z,88.95
2022-08-05T05:47:04.311Z,88.44
2022-08-05T05:49:41.616Z,88.18
2022-08-05T05:52:12.989Z,88.44
2022-08-05T05:54:56.458Z,88.32
2022-08-05T05:57:25.101Z,87.46
2022-08-05T06:00:14.344Z,88.14
2022-08-05T06:02:43.135Z,88.34
2022-08-05T06:05:16.513Z,87.41
2022-08-05T06:08:01.130Z,87.42
2022-08-05T06:10:36.644Z,86.80
2022-08-05T06:13:06.758Z,87.49
2022-08-05T06:16:28.285Z,85.98
2022-08-05T06:18:31.326Z,86.06
2022-08-05T06:21:00.852Z,86.56
2022-08-05T06:23:43.504Z,85.86
2022-08-05T06:26:21.373Z,85.94
2022-08-05T06:28:52.613Z,84.73
2022-08-05T06:31:21.922Z,84.43
2022-08-05T06:34:07.297Z,84.51
2022-08-05T06:36:57.050Z,84.05
2022-08-05T06:39:27.048Z,85.02
2022-08-05T06:41:58.807Z,84.47
2022-08-05T06:44:27.935Z,83.62
2022-08-05T06:46:56.435Z,82.92
2022-08-05T06:50:01.421Z,82.90
2022-08-05T06:52:37.677Z,83.71
2022-08-05T06:55:02.850Z,82.00
2022-08-05T06:57:57.294Z,81.63
2022-08-05T07:00:22.203Z,81.26
2022-08-05T07:02:53.797Z,81.73
2022-08-05T07:05:37.512Z,81.23
2022-08-05T07:08:10.711Z,81.58
2022-08-05T07:10:52.431Z,81.06
2022-08-05T07:13:57.687Z,80.87
2022-08-05T07:17:56.464Z,79.90
2022-08-05T07:22:28.615Z,80.07
2022-08-05T07:24:59.671Z,79.99
2022-08-05T07:27:58.374Z,78.44
2022-08-05T07:30:33.734Z,78.62
2022-08-05T07:33:05.070Z,76.40
2022-08-05T07:36:03.518Z,75.81
2022-08-05T07:38:33.529Z,75.69
2022-08-05T07:42:09.498Z,74.97
2022-08-05T07:43:52.448Z,75.81
2022-08-05T07:46:24.791Z,75.60
2022-08-05T07:49:02.529Z,75.02
2022-08-05T07:51:48.991Z,74.76
2022-08-05T07:54:31.329Z,77.66
2022-08-05T07:57:41.972Z,75.96
2022-08-05T07:59:51.222Z,74.37
2022-08-05T08:02:31.233Z,75.25
2022-08-05T08:05:14.964Z,74.20
2022-08-05T08:07:59.816Z,74.79
2022-08-05T08:10:29.535Z,74.14
2022-08-05T08:12:59.263Z,73.19
2022-08-05T08:16:33.814Z,72.50
2022-08-05T08:18:20.792Z,73.42
2022-08-05T08:21:03.180Z,73.31
2022-08-05T08:24:02.054Z,71.62
2022-08-05T08:26:27.087Z,71.07
2022-08-05T08:29:02.105Z,71.15
2022-08-05T08:31:47.162Z,70.76
2022-08-05T08:34:18.759Z,68.97
2022-08-05T08:37:05.057Z,67.17
2022-08-05T08:39:37.680Z,67.77
2022-08-05T08:42:32.322Z,67.10
2022-08-05T08:45:22.446Z,67.26
2022-08-05T08:48:12.307Z,62.31
2022-08-05T08:51:04.146Z,64.31
2022-08-05T08:53:38.084Z,62.32
2022-08-05T08:56:13.003Z,61.36
2022-08-05T08:58:44.698Z,59.53
2022-08-05T09:01:18.302Z,59.91
2022-08-05T09:03:54.485Z,60.38
2022-08-05T09:06:29.944Z,59.79
2022-08-05T09:09:01.479Z,57.47
2022-08-05T09:11:51.758Z,55.76
2022-08-05T09:14:56.546Z,54.39
2022-08-05T09:17:39.907Z,53.20
2022-08-05T09:20:02.530Z,54.03
2022-08-05T09:23:09.068Z,52.72
2022-08-05T09:26:03.413Z,51.83
2022-08-05T09:28:31.949Z,51.19
2022-08-05T09:31:18.228Z,52.16
2022-08-05T09:33:59.298Z,49.13
2022-08-05T09:36:45.906Z,47.82
2022-08-05T09:39:41.897Z,44.50
2022-08-05T09:42:24.343Z,48.54
2022-08-05T09:45:17.521Z,47.97
2022-08-05T09:47:55.942Z,47.42
2022-08-05T09:50:38.415Z,45.02
2022-08-05T09:53:22.876Z,45.46
2022-08-05T09:56:03.907Z,44.17
2022-08-05T09:58:41.651Z,43.85
2022-08-05T10:01:22.657Z,40.39
2022-08-05T10:04:03.734Z,41.07
2022-08-05T10:06:32.447Z,41.56
2022-08-05T10:09:25.035Z,41.32
2022-08-05T10:12:30.642Z,38.21
2022-08-05T10:15:17.192Z,38.57
2022-08-05T10:18:05.766Z,38.92
2022-08-05T10:20:37.805Z,36.94
2022-08-05T10:23:21.873Z,38.01
2022-08-05T10:25:56.904Z,38.50
2022-08-05T10:28:29.078Z,37.41
2022-08-05T10:32:52.644Z,36.78
2022-08-05T10:33:52.166Z,37.20
2022-08-05T10:36:23.785Z,37.17
2022-08-05T10:39:05.037Z,100.00
2022-08-05T10:41:47.128Z,34.18
2022-08-05T10:44:20.237Z,36.15
2022-08-05T10:46:54.002Z,35.52
2022-08-05T10:49:27.031Z,35.13
2022-08-05T10:52:05.223Z,35.03
2022-08-05T10:55:03.184Z,34.65
2022-08-05T10:57:34.264Z,33.46
2022-08-05T11:00:19.336Z,33.90
2022-08-05T11:03:23.889Z,33.01
2022-08-05T11:06:06.324Z,31.34
2022-08-05T11:08:38.138Z,31.38
2022-08-05T11:11:44.321Z,30.47
2022-08-05T11:14:14.048Z,31.10
2022-08-05T11:16:56.086Z,30.71
2022-08-05T11:20:10.143Z,29.63
2022-08-05T11:22:42.891Z,29.92
2022-08-05T11:26:04.712Z,29.46
2022-08-05T11:28:53.055Z,29.76
2022-08-05T11:31:56.299Z,30.73
2022-08-05T11:34:40.097Z,29.58
2022-08-05T11:38:29.584Z,28.20
2022-08-05T11:41:14.070Z,28.26
2022-08-05T11:44:04.602Z,28.30
2022-08-05T11:47:09.321Z,27.78
2022-08-05T11:49:27.241Z,28.57
2022-08-05T11:51:57.929Z,28.45
2022-08-05T11:54:33.489Z,28.61
2022-08-05T11:57:08.077Z,28.03
2022-08-05T11:59:53.778Z,27.93
2022-08-05T12:02:30.286Z,27.18
2022-08-05T12:05:07.263Z,27.12
2022-08-05T12:08:03.577Z,26.82
2022-08-05T12:10:38.542Z,27.28
2022-08-05T12:13:47.356Z,25.99
2022-08-05T12:16:15.013Z,25.88
2022-08-05T12:18:52.356Z,25.81
2022-08-05T12:21:23.949Z,25.65
2022-08-05T12:24:06.782Z,24.81
2022-08-05T12:26:36.976Z,25.52
2022-08-05T12:29:09.414Z,25.73
2022-08-05T12:31:41.490Z,25.68
2022-08-05T12:34:21.515Z,25.43
2022-08-05T12:36:53.625Z,25.04
2022-08-05T12:39:28.008Z,25.28
2022-08-05T12:42:03.910Z,25.07
2022-08-05T12:44:37.419Z,24.65
2022-08-05T12:47:12.549Z,25.06
2022-08-05T12:50:03.065Z,24.88
2022-08-05T12:52:37.756Z,24.97
2022-08-05T12:55:25.440Z,23.74
2022-08-05T12:58:38.183Z,24.39
2022-08-05T13:02:01.008Z,23.75
2022-08-05T13:03:42.218Z,23.07
2022-08-05T13:06:16.950Z,22.29
2022-08-05T13:08:51.666Z,22.24
2022-08-05T13:11:25.462Z,22.57
2022-08-05T13:14:19.820Z,22.58
2022-08-05T13:16:56.590Z,22.50
2022-08-05T13:19:27.003Z,22.82
2022-08-05T13:22:27.970Z,22.95
2022-08-05T13:25:05.584Z,23.45
2022-08-05T13:27:40.932Z,23.84
2022-08-05T13:30:34.106Z,23.80
2022-08-05T13:33:02.048Z,23.69
2022-08-05T13:35:42.898Z,23.73
2022-08-05T13:38:28.436Z,22.86
2022-08-05T13:41:00.547Z,23.34
2022-08-05T13:43:44.988Z,23.06
2022-08-05T13:46:30.715Z,23.12
2022-08-05T13:49:10.190Z,23.08
2022-08-05T13:51:41.799Z,22.14
2022-08-05T13:54:16.029Z,22.68
2022-08-05T13:56:51.087Z,23.21
2022-08-05T13:59:24.534Z,23.08
2022-08-05T14:01:57.651Z,23.18
2022-08-05T14:04:49.888Z,22.71
2022-08-05T14:07:55.437Z,22.81
2022-08-05T14:10:12.331Z,21.51
2022-08-05T14:12:42.732Z,22.56
2022-08-05T14:16:06.971Z,22.35
2022-08-05T14:18:03.866Z,22.21
2022-08-05T14:20:33.404Z,23.25
2022-08-05T14:23:02.123Z,22.91
2022-08-05T14:25:31.246Z,22.87
2022-08-05T14:27:59.844Z,22.96
2022-08-05T14:30:30.531Z,22.52
2022-08-05T14:32:59.025Z,21.21
2022-08-05T14:35:50.073Z,21.78
2022-08-05T14:38:27.645Z,22.54
2022-08-05T14:41:05.681Z,22.49
2022-08-05T14:44:02.107Z,22.84
2022-08-05T14:46:28.741Z,22.80
2022-08-05T14:49:06.918Z,22.12
2022-08-05T14:51:37.429Z,21.56
2022-08-05T14:54:28.425Z,22.29
2022-08-05T14:56:55.511Z,22.36
2022-08-05T14:59:24.334Z,22.77
2022-08-05T15:01:54.314Z,22.67
2022-08-05T15:04:23.950Z,21.82
2022-08-05T15:06:55.879Z,22.91
2022-08-05T15:09:52.623Z,21.71
2022-08-05T15:12:16.957Z,22.21
2022-08-05T15:14:50.567Z,22.76
2022-08-05T15:17:45.737Z,23.09
2022-08-05T15:20:19.117Z,22.73
2022-08-05T15:22:54.559Z,22.56
2022-08-05T15:25:50.859Z,22.85
2022-08-05T15:28:15.523Z,23.44
2022-08-05T15:30:45.530Z,23.65
2022-08-05T15:33:56.487Z,23.60
2022-08-05T15:36:06.043Z,23.54
2022-08-05T15:38:46.875Z,23.23
2022-08-05T15:41:21.852Z,23.47
2022-08-05T15:43:54.654Z,23.09
2022-08-05T15:46:24.859Z,23.05
2022-08-05T15:49:00.936Z,23.34
2022-08-05T15:52:09.950Z,23.81
2022-08-05T15:54:34.685Z,24.04
2022-08-05T15:57:04.099Z,23.72
2022-08-05T15:59:38.197Z,24.15
2022-08-05T16:02:09.520Z,23.46
2022-08-05T16:04:45.234Z,22.95
2022-08-05T16:07:14.613Z,23.21
2022-08-05T16:09:43.931Z,23.39
2022-08-05T16:12:12.516Z,23.94
2022-08-05T16:14:40.997Z,23.83
2022-08-05T16:17:10.813Z,22.97
2022-08-05T16:20:04.502Z,22.80
2022-08-05T16:22:34.345Z,22.66
2022-08-05T16:25:08.120Z,22.98
2022-08-05T16:27:47.280Z,23.29
2022-08-05T16:30:28.849Z,23.27
2022-08-05T16:32:58.048Z,23.81
2022-08-05T16:35:32.334Z,24.25
2022-08-05T16:38:18.543Z,24.22
2022-08-05T16:40:59.714Z,24.13
2022-08-05T16:43:31.757Z,24.12
2022-08-05T16:46:07.387Z,24.01
2022-08-05T16:48:49.018Z,24.22
2022-08-05T16:51:17.785Z,24.45
2022-08-05T16:54:05.064Z,24.63
2022-08-05T16:56:37.287Z,24.73
2022-08-05T16:59:10.675Z,24.73
2022-08-05T17:01:54.477Z,24.88
2022-08-05T17:04:26.973Z,24.41
2022-08-05T17:07:00.392Z,24.88
2022-08-05T17:09:38.957Z,25.56
2022-08-05T17:12:22.531Z,25.50
2022-08-05T17:15:09.206Z,25.63
2022-08-05T17:18:02.080Z,25.81
2022-08-05T17:20:26.590Z,26.26
2022-08-05T17:22:58.748Z,26.79
2022-08-05T17:25:39.609Z,26.95
2022-08-05T17:28:09.852Z,27.49
2022-08-05T17:30:50.601Z,27.60
2022-08-05T17:33:21.328Z,28.61
2022-08-05T17:36:08.983Z,29.49
2022-08-05T17:38:39.939Z,30.22
2022-08-05T17:41:22.775Z,32.13
2022-08-05T17:43:58.596Z,32.70
2022-08-05T17:46:27.672Z,33.85
2022-08-05T17:48:56.361Z,35.06
2022-08-05T17:51:26.479Z,35.78
2022-08-05T17:53:55.270Z,35.43
2022-08-05T17:56:28.418Z,36.09
2022-08-05T17:58:57.077Z,37.15
2022-08-05T18:01:25.945Z,38.28
2022-08-05T18:03:59.754Z,38.91
2022-08-05T18:06:33.074Z,39.30
2022-08-05T18:09:03.695Z,39.90
2022-08-05T18:11:34.083Z,40.66
2022-08-05T18:14:07.468Z,41.19
2022-08-05T18:16:51.001Z,40.87
2022-08-05T18:19:23.112Z,41.77
2022-08-05T18:22:09.221Z,42.37
2022-08-05T18:24:40.236Z,42.55
2022-08-05T18:27:12.311Z,42.54
2022-08-05T18:29:51.898Z,43.30
2022-08-05T18:32:27.678Z,43.54
2022-08-05T18:34:57.006Z,44.12
2022-08-05T18:37:33.919Z,44.29
2022-08-05T18:41:51.034Z,44.63
2022-08-05T18:42:53.521Z,45.16
2022-08-05T18:45:22.319Z,45.98
2022-08-05T18:47:56.676Z,46.47
2022-08-05T18:50:45.201Z,46.84
2022-08-05T18:53:23.131Z,52.15
2022-08-05T18:55:54.954Z,49.76
2022-08-05T18:58:28.665Z,50.52
2022-08-05T19:00:58.548Z,50.05
2022-08-05T19:03:52.992Z,49.03
2022-08-05T19:06:22.446Z,47.94
2022-08-05T19:09:05.951Z,49.41
2022-08-05T19:11:59.382Z,50.46
2022-08-05T19:14:37.693Z,52.63
2022-08-05T19:17:14.639Z,53.39
2022-08-05T19:19:46.896Z,54.70
2022-08-05T19:22:17.754Z,56.03
2022-08-05T19:24:56.538Z,56.87
2022-08-05T19:27:30.206Z,56.37
2022-08-05T19:30:02.954Z,57.76
2022-08-05T19:32:32.460Z,58.35
2022-08-05T19:35:05.929Z,57.17
2022-08-05T19:38:04.284Z,58.41
2022-08-05T19:40:24.491Z,57.49
2022-08-05T19:43:00.714Z,59.25
2022-08-05T19:45:36.531Z,59.75
2022-08-05T19:48:06.887Z,59.06
2022-08-05T19:50:43.084Z,58.71
2022-08-05T19:53:11.890Z,59.60
2022-08-05T19:56:14.277Z,58.62
2022-08-05T19:58:30.368Z,59.29
2022-08-05T20:01:00.478Z,61.52
2022-08-05T20:03:40.813Z,62.22
2022-08-05T20:06:11.824Z,60.93
2022-08-05T20:08:47.499Z,61.51
2022-08-05T20:11:18.039Z,60.24
2022-08-05T20:13:59.151Z,61.07
2022-08-05T20:16:39.733Z,62.14
2022-08-05T20:19:08.929Z,60.90
2022-08-05T20:21:40.302Z,61.02
2022-08-05T20:24:12.465Z,60.58
2022-08-05T20:26:44.758Z,59.48
2022-08-05T20:29:27.246Z,59.58
2022-08-05T20:31:58.309Z,58.92
2022-08-05T20:34:31.134Z,59.77
2022-08-05T20:37:00.272Z,59.79
2022-08-05T20:39:36.582Z,59.50
2022-08-05T20:42:05.803Z,61.49
2022-08-05T20:44:37.824Z,61.23
2022-08-05T20:47:08.637Z,61.62
2022-08-05T20:49:39.929Z,62.84
2022-08-05T20:52:10.478Z,61.88
2022-08-05T20:54:43.112Z,63.57
2022-08-05T20:57:42.061Z,63.66
2022-08-05T21:00:40.726Z,64.77
2022-08-05T21:03:08.071Z,64.50
2022-08-05T21:05:54.462Z,64.97
2022-08-05T21:08:26.572Z,64.25
2022-08-05T21:10:58.341Z,64.21
2022-08-05T21:13:47.539Z,63.93
2022-08-05T21:16:21.933Z,63.47
2022-08-05T21:18:53.131Z,64.26
2022-08-05T21:21:24.462Z,65.34
2022-08-05T21:23:53.604Z,63.76
2022-08-05T21:26:26.400Z,63.47
2022-08-05T21:29:03.890Z,64.38
2022-08-05T21:31:41.051Z,64.13
2022-08-05T21:34:12.353Z,64.93
2022-08-05T21:36:42.432Z,65.94
2022-08-05T21:39:16.883Z,66.79
2022-08-05T21:42:01.817Z,66.66
2022-08-05T21:44:31.635Z,68.68
2022-08-05T21:47:00.919Z,69.41
2022-08-05T21:49:56.528Z,70.23
2022-08-05T21:52:28.154Z,71.12
2022-08-05T21:54:57.813Z,71.11
2022-08-05T21:57:35.701Z,70.30
2022-08-05T22:00:10.761Z,71.99
2022-08-05T22:02:40.012Z,70.32
2022-08-05T22:05:12.577Z,70.97
2022-08-05T22:07:58.794Z,71.54
2022-08-05T22:10:31.202Z,74.03
2022-08-05T22:13:08.809Z,74.04
2022-08-05T22:16:01.563Z,72.54
2022-08-05T22:18:36.573Z,72.49
2022-08-05T22:21:19.215Z,73.49
2022-08-05T22:24:09.172Z,72.75
2022-08-05T22:26:59.071Z,73.25
2022-08-05T22:29:30.715Z,74.62
2022-08-05T22:32:02.749Z,75.88
2022-08-05T22:34:32.881Z,73.80
2022-08-05T22:37:03.815Z,77.70
2022-08-05T22:39:35.060Z,78.74
2022-08-05T22:42:08.900Z,76.87
2022-08-05T22:44:47.007Z,80.74
2022-08-05T22:47:29.752Z,77.50
2022-08-05T22:50:21.041Z,77.21
2022-08-05T22:52:54.261Z,79.96
2022-08-05T22:55:23.546Z,81.53
2022-08-05T22:57:52.836Z,85.89
2022-08-05T23:00:22.778Z,83.70
2022-08-05T23:02:52.409Z,85.92
2022-08-05T23:05:22.692Z,86.59
2022-08-05T23:07:53.172Z,87.77
2022-08-05T23:10:24.300Z,86.21
2022-08-05T23:12:55.733Z,86.38
2022-08-05T23:15:29.649Z,85.46
2022-08-05T23:18:05.933Z,87.94
2022-08-05T23:20:43.242Z,87.04
2022-08-05T23:23:13.301Z,85.35
2022-08-05T23:25:51.179Z,85.95
2022-08-05T23:28:29.048Z,84.12
2022-08-05T23:31:02.317Z,84.17
2022-08-05T23:34:03.781Z,85.91
2022-08-05T23:36:40.178Z,87.88
2022-08-05T23:39:32.300Z,89.21
2022-08-05T23:42:08.603Z,87.70
2022-08-05T23:44:42.910Z,86.33
2022-08-05T23:47:14.297Z,86.12
2022-08-05T23:49:43.712Z,90.02
2022-08-05T23:52:31.672Z,89.84
2022-08-05T23:55:05.250Z,89.15
2022-08-05T23:57:36.764Z,89.30
